Time;durP1;ratioP1;P1;durP2;ratioP2;P2;SDS_P1;SDS_P2;PMS_P1;PMS_P2;Temp;Humidity;BMP_temperature;BMP_pressure;BME280_temperature;BME280_humidity;BME280_pressure;Samples;Min_cycle;Max_cycle;Signal;HPM_P1;HPM_P2
2023/01/22 00:00:17;;;;;;;15.68;9.85;;;4.80;99.90;;;;;;4940386;29;20042;-88
2023/01/22 00:02:44;;;;;;;15.18;9.05;;;4.80;99.90;;;;;;4943156;28;20023;-88
2023/01/22 00:05:11;;;;;;;17.35;9.45;;;4.90;99.90;;;;;;4959787;28;20031;-88
2023/01/22 00:07:38;;;;;;;15.45;9.10;;;5.00;99.90;;;;;;4959305;28;20019;-87
2023/01/22 00:10:05;;;;;;;20.38;9.75;;;5.00;99.90;;;;;;4959332;28;20062;-88
2023/01/22 00:12:32;;;;;;;16.05;9.65;;;5.10;99.90;;;;;;4959421;28;20033;-88
2023/01/22 00:14:59;;;;;;;17.75;9.63;;;5.10;99.90;;;;;;4959276;28;20031;-87
2023/01/22 00:17:25;;;;;;;19.10;9.43;;;5.10;99.90;;;;;;4959366;28;20022;-87
2023/01/22 00:19:52;;;;;;;16.55;9.55;;;5.10;99.90;;;;;;4959140;28;20051;-88
2023/01/22 00:22:18;;;;;;;13.90;9.25;;;5.10;99.90;;;;;;4959361;28;20507;-89
2023/01/22 00:24:45;;;;;;;16.70;9.50;;;5.10;99.90;;;;;;4959294;28;20046;-87
2023/01/22 00:27:12;;;;;;;17.67;9.20;;;5.00;99.90;;;;;;4959472;28;20030;-86
2023/01/22 00:29:39;;;;;;;14.13;8.35;;;5.10;99.90;;;;;;4959770;28;20129;-88
2023/01/22 00:32:06;;;;;;;14.43;8.25;;;5.10;99.90;;;;;;4959175;28;20476;-87
2023/01/22 00:34:33;;;;;;;15.70;7.70;;;5.10;99.90;;;;;;4959296;28;20054;-88
2023/01/22 00:37:00;;;;;;;15.60;8.13;;;5.10;99.90;;;;;;4959116;28;20480;-87
2023/01/22 08:02:33;;;;;;;14.80;11.20;;;9.40;99.90;;;;;;5893248;23;20149;-91
2023/01/22 08:40:01;;;;;;;14.90;13.70;;;11.80;99.90;;;;;;6107379;23;20024;-91
2023/01/22 17:10:42;;;;;;;14.00;12.60;;;8.70;99.90;;;;;;5814741;23;21374;31
2023/01/22 17:16:37;;;;;;;14.35;13.05;;;8.80;99.90;;;;;;5570240;23;20057;-92
2023/01/22 17:34:10;;;;;;;;;;;;;;;;;;;;;
2023/01/22 17:37:09;;;;;;;11.70;10.48;;;8.80;99.90;;;;;;4929290;28;20061;-91
2023/01/22 17:42:29;;;;;;;10.73;9.65;;;8.80;99.90;;;;;;5520231;23;20039;-92
2023/01/22 17:45:10;;;;;;;11.23;10.18;;;8.80;99.90;;;;;;4989517;23;20059;-92
2023/01/22 17:47:43;;;;;;;14.15;12.82;;;8.80;99.90;;;;;;4967732;29;20032;-94
2023/01/22 17:50:19;;;;;;;14.95;13.32;;;8.90;99.90;;;;;;4958093;29;20497;-93
2023/01/22 17:52:54;;;;;;;14.75;13.13;;;8.80;99.90;;;;;;4956972;29;20047;-93
2023/01/22 17:55:37;;;;;;;16.70;14.60;;;8.80;99.90;;;;;;4971869;29;20033;-93
2023/01/22 17:58:55;;;;;;;17.33;13.80;;;8.90;99.90;;;;;;4954527;29;20279;-92
2023/01/22 18:02:13;;;;;;;14.48;12.85;;;8.90;99.90;;;;;;4955226;29;20048;-93
2023/01/22 18:07:34;;;;;;;13.43;12.13;;;9.00;99.90;;;;;;5159773;23;20054;-94
2023/01/22 18:11:02;;;;;;;13.15;11.95;;;9.00;99.90;;;;;;4977483;28;20461;-91
2023/01/22 18:13:39;;;;;;;15.27;13.85;;;9.00;99.90;;;;;;4966877;28;20030;-92
2023/01/22 18:16:33;;;;;;;13.68;12.30;;;9.00;99.90;;;;;;4964490;29;20384;-93
2023/01/22 18:19:32;;;;;;;;;;;;;;;;;;;;;
2023/01/22 18:22:19;;;;;;;17.65;12.30;;;9.20;99.90;;;;;;4968772;29;20110;-91
2023/01/22 18:25:24;;;;;;;13.32;12.00;;;9.30;99.90;;;;;;4976082;28;20063;-92
2023/01/22 18:28:58;;;;;;;13.00;10.88;;;9.40;99.90;;;;;;5120950;23;20070;-93
2023/01/22 18:32:16;;;;;;;14.93;9.32;;;9.50;99.90;;;;;;4897713;29;20041;-94
2023/01/22 18:35:12;;;;;;;10.93;9.77;;;9.60;99.90;;;;;;4896347;29;20062;-92
2023/01/22 18:37:58;;;;;;;13.77;10.40;;;9.70;99.90;;;;;;4890467;29;20033;-93
2023/01/22 18:41:31;;;;;;;10.23;9.02;;;9.70;99.90;;;;;;4892296;29;20041;-95
2023/01/22 18:49:03;;;;;;;20.38;8.40;;;9.80;99.90;;;;;;4872365;29;20132;-93
2023/01/22 18:51:45;;;;;;;;;;;;;;;;;;;;;
2023/01/22 19:02:16;;;;;;;19.75;10.25;;;9.90;99.90;;;;;;4963361;29;20126;-91
2023/01/22 19:08:54;;;;;;;18.33;10.05;;;10.00;99.90;;;;;;4934383;29;20421;-92
2023/01/22 19:11:36;;;;;;;15.02;10.48;;;10.10;99.90;;;;;;4936827;28;20039;-92
2023/01/22 19:30:59;;;;;;;13.60;9.90;;;10.20;99.90;;;;;;5188061;23;20046;-93
2023/01/22 19:33:33;;;;;;;15.02;9.02;;;10.20;99.90;;;;;;4949283;28;20097;-93
2023/01/22 19:43:07;;;;;;;18.80;8.63;;;10.20;99.90;;;;;;4976564;28;20034;-92
2023/01/22 19:45:40;;;;;;;19.38;8.15;;;10.20;99.90;;;;;;4982710;28;20034;-94
2023/01/22 19:48:09;;;;;;;12.60;8.50;;;10.20;99.90;;;;;;4981463;28;20038;-93
2023/01/22 19:50:45;;;;;;;21.73;8.80;;;10.20;99.90;;;;;;4965818;28;20094;-94
2023/01/22 19:56:19;;;;;;;18.42;9.20;;;10.30;99.90;;;;;;4986077;28;20412;-93
2023/01/22 20:05:23;;;;;;;11.15;7.85;;;10.40;99.90;;;;;;4964625;29;20047;-95
2023/01/22 20:07:59;;;;;;;12.52;8.05;;;10.40;99.90;;;;;;4944764;29;20043;-93
2023/01/22 20:14:36;;;;;;;14.38;8.85;;;10.60;99.90;;;;;;5028083;23;20142;-92
2023/01/22 20:17:04;;;;;;;10.52;8.57;;;10.60;99.90;;;;;;4925276;29;20031;-91
2023/01/22 20:20:16;;;;;;;13.48;9.65;;;10.70;99.90;;;;;;4933609;29;20043;-92
2023/01/22 20:23:14;;;;;;;12.93;9.20;;;10.70;99.90;;;;;;5229660;23;20103;-95
2023/01/22 20:28:44;;;;;;;22.38;13.27;;;10.70;99.90;;;;;;5729617;23;20050;-96
2023/01/22 20:31:23;;;;;;;19.70;13.88;;;10.80;99.90;;;;;;4971977;28;20034;-93
2023/01/22 20:34:07;;;;;;;22.48;13.40;;;10.80;99.90;;;;;;5130690;23;20051;-92
2023/01/22 20:36:51;;;;;;;25.58;12.30;;;10.80;99.90;;;;;;4922573;29;20478;-93
2023/01/22 20:39:18;;;;;;;20.52;12.15;;;10.80;99.90;;;;;;4919842;29;20428;-93
2023/01/22 20:41:54;;;;;;;31.33;12.95;;;10.80;99.90;;;;;;4921035;29;20040;-93
2023/01/22 20:44:32;;;;;;;17.08;11.60;;;10.80;99.90;;;;;;4890061;29;20036;-93
2023/01/22 20:47:02;;;;;;;23.35;13.02;;;10.80;99.90;;;;;;4888915;29;20040;-91
2023/01/22 20:49:29;;;;;;;22.25;13.98;;;10.70;99.90;;;;;;4886462;29;20035;-92
2023/01/22 20:51:55;;;;;;;22.35;15.30;;;10.70;99.90;;;;;;4902176;29;20080;-93
2023/01/22 20:54:44;;;;;;;34.03;15.38;;;10.60;99.90;;;;;;4898217;29;20064;-93
2023/01/22 20:57:11;;;;;;;13.93;12.48;;;10.50;99.90;;;;;;4901275;29;20091;-93
2023/01/22 20:59:37;;;;;;;16.98;13.80;;;10.40;99.90;;;;;;4885365;29;20191;-92
2023/01/22 21:02:04;;;;;;;15.35;13.70;;;10.20;99.90;;;;;;4885274;29;20064;-93
2023/01/22 21:04:36;;;;;;;15.38;12.77;;;10.10;99.90;;;;;;4869347;29;20036;-93
2023/01/22 21:07:02;;;;;;;23.77;12.63;;;10.10;99.90;;;;;;4883649;29;20124;-93
2023/01/22 21:09:29;;;;;;;22.63;13.02;;;10.10;99.90;;;;;;4886546;29;20038;-93
2023/01/22 21:11:56;;;;;;;21.27;13.30;;;10.00;99.90;;;;;;4882143;29;20044;-92
2023/01/22 21:14:35;;;;;;;20.05;11.90;;;10.00;99.90;;;;;;4898699;29;20036;-94
2023/01/22 21:17:01;;;;;;;18.15;11.85;;;10.10;99.90;;;;;;4916901;29;20115;-91
2023/01/22 21:19:28;;;;;;;20.27;12.20;;;10.00;99.90;;;;;;4901272;29;20032;-93
2023/01/22 21:21:59;;;;;;;21.75;11.70;;;10.00;99.90;;;;;;4901681;29;20500;-93
2023/01/22 21:24:26;;;;;;;20.35;11.32;;;10.00;99.90;;;;;;4925901;29;20064;-93
2023/01/22 21:29:27;;;;;;;20.15;11.57;;;10.00;99.90;;;;;;4970744;28;20070;-94
2023/01/22 21:31:57;;;;;;;19.98;11.15;;;10.00;99.90;;;;;;4940129;29;20106;-92
2023/01/22 21:34:25;;;;;;;18.95;11.43;;;9.90;99.90;;;;;;4939322;29;20055;-93
2023/01/22 21:36:57;;;;;;;17.33;10.73;;;10.00;99.90;;;;;;4922980;29;20134;-92
2023/01/22 21:39:29;;;;;;;18.05;11.05;;;10.00;99.90;;;;;;4939117;29;20032;-93
2023/01/22 21:47:30;;;;;;;32.95;12.90;;;10.10;99.90;;;;;;4955123;29;20054;-93
2023/01/22 21:49:56;;;;;;;23.25;11.45;;;10.20;99.90;;;;;;4955413;29;20031;-93
2023/01/22 21:52:23;;;;;;;21.38;11.88;;;10.30;99.90;;;;;;4954930;29;20035;-92
2023/01/22 21:54:49;;;;;;;20.92;11.55;;;10.50;99.90;;;;;;4954703;29;20023;-92
2023/01/22 21:57:19;;;;;;;25.15;12.05;;;10.60;99.90;;;;;;4954467;29;20042;-92
2023/01/22 21:59:46;;;;;;;19.95;12.88;;;10.70;99.90;;;;;;4954588;29;20066;-91
2023/01/22 22:02:17;;;;;;;22.17;12.25;;;10.70;99.90;;;;;;4939299;29;20072;-93
2023/01/22 22:04:44;;;;;;;28.52;13.63;;;10.70;99.90;;;;;;4954692;28;20027;-91
2023/01/22 22:07:14;;;;;;;21.35;13.70;;;10.70;99.90;;;;;;4956248;29;20086;-92
2023/01/22 22:09:43;;;;;;;27.27;20.58;;;10.70;99.90;;;;;;4960787;29;20499;-92
2023/01/22 22:12:10;;;;;;;19.17;13.90;;;10.60;99.90;;;;;;4955646;29;20024;-92
2023/01/22 22:14:37;;;;;;;22.35;13.77;;;10.60;99.90;;;;;;4955117;28;20064;-92
2023/01/22 22:17:03;;;;;;;26.27;13.93;;;10.50;99.90;;;;;;4954883;29;20118;-94
2023/01/22 22:19:30;;;;;;;25.65;14.25;;;10.60;99.90;;;;;;4955666;29;20031;-91
2023/01/22 22:21:57;;;;;;;25.77;15.10;;;10.60;99.90;;;;;;4944018;28;20051;-92
2023/01/22 22:24:24;;;;;;;39.15;16.08;;;10.60;99.90;;;;;;4938786;29;20442;-94
2023/01/22 22:26:54;;;;;;;28.85;16.02;;;10.60;99.90;;;;;;4939227;29;20035;-93
2023/01/22 22:29:20;;;;;;;21.63;14.05;;;10.60;99.90;;;;;;4939415;29;20035;-92
2023/01/22 22:31:47;;;;;;;19.73;16.58;;;10.60;99.90;;;;;;4941717;29;20027;-95
2023/01/22 22:34:14;;;;;;;18.45;16.08;;;10.60;99.90;;;;;;4940100;29;20023;-91
2023/01/22 22:36:41;;;;;;;16.40;14.95;;;10.30;99.90;;;;;;4939907;29;20032;-93
2023/01/22 22:39:11;;;;;;;15.10;14.00;;;10.00;99.90;;;;;;4943682;29;20023;-92
2023/01/22 22:42:08;;;;;;;23.27;21.23;;;9.90;99.90;;;;;;4943906;29;20123;-92
2023/01/22 22:44:36;;;;;;;24.45;22.85;;;9.70;99.90;;;;;;4945311;29;20111;-92
2023/01/22 22:47:03;;;;;;;25.13;23.42;;;9.20;99.90;;;;;;4940246;29;20027;-93
2023/01/22 22:49:30;;;;;;;37.42;34.97;;;9.00;99.90;;;;;;4942871;29;20062;-93
2023/01/22 22:51:57;;;;;;;24.92;22.42;;;9.00;99.90;;;;;;4942603;29;20023;-93
2023/01/22 22:54:23;;;;;;;24.05;21.85;;;9.20;99.90;;;;;;4942225;29;20031;-94
2023/01/22 22:56:51;;;;;;;23.42;21.48;;;9.40;99.90;;;;;;4942390;29;20039;-94
2023/01/22 22:59:19;;;;;;;23.05;21.08;;;9.50;99.90;;;;;;4942396;29;20051;-94
2023/01/22 23:01:48;;;;;;;22.63;20.50;;;9.50;99.90;;;;;;4941822;29;20377;-95
2023/01/22 23:04:14;;;;;;;23.60;21.30;;;9.50;99.90;;;;;;4941642;29;20024;-93
2023/01/22 23:06:43;;;;;;;22.92;20.63;;;9.60;99.90;;;;;;4941964;29;20031;-92
2023/01/22 23:09:19;;;;;;;22.80;20.95;;;9.50;99.90;;;;;;4941781;29;20033;-93
2023/01/22 23:11:50;;;;;;;27.27;22.35;;;9.50;99.90;;;;;;4941580;29;20035;-93
2023/01/22 23:14:17;;;;;;;23.50;21.50;;;9.50;99.90;;;;;;4941586;29;20035;-93
2023/01/22 23:16:44;;;;;;;21.20;19.63;;;9.40;99.90;;;;;;4929374;29;20024;-94
2023/01/22 23:19:20;;;;;;;24.80;21.98;;;9.40;99.90;;;;;;4922296;29;20036;-93
2023/01/22 23:21:55;;;;;;;20.88;19.25;;;9.30;99.90;;;;;;4922595;29;20074;-92
2023/01/22 23:24:23;;;;;;;20.00;18.13;;;9.30;99.90;;;;;;4922536;29;20482;-93
2023/01/22 23:26:50;;;;;;;20.98;17.77;;;9.30;99.90;;;;;;4922376;29;20039;-92
2023/01/22 23:29:20;;;;;;;19.48;17.58;;;9.30;99.90;;;;;;4922355;29;20052;-94
2023/01/22 23:31:47;;;;;;;18.40;16.95;;;9.30;99.90;;;;;;4922664;29;20474;-93
2023/01/22 23:34:16;;;;;;;19.33;17.30;;;9.30;99.90;;;;;;4922231;29;20036;-92
2023/01/22 23:36:45;;;;;;;18.83;16.92;;;9.30;99.90;;;;;;4922444;29;20424;-93
2023/01/22 23:39:14;;;;;;;18.70;16.83;;;9.30;99.90;;;;;;4922030;29;20034;-92
2023/01/22 23:41:41;;;;;;;21.95;18.88;;;9.30;99.90;;;;;;4922422;29;20044;-93
2023/01/22 23:44:08;;;;;;;19.35;17.77;;;9.40;99.90;;;;;;4922274;29;20024;-94
2023/01/22 23:46:38;;;;;;;19.52;17.50;;;9.40;99.90;;;;;;4922562;29;20102;-91
2023/01/22 23:49:09;;;;;;;20.00;16.95;;;9.40;99.90;;;;;;4923124;29;20042;-92
2023/01/22 23:51:39;;;;;;;22.27;16.25;;;9.40;99.90;;;;;;4933691;29;20027;-92
2023/01/22 23:54:07;;;;;;;19.45;16.40;;;9.40;99.90;;;;;;4922877;29;20035;-91
2023/01/22 23:56:35;;;;;;;25.95;16.33;;;9.40;99.90;;;;;;4921807;29;20027;-91
2023/01/22 23:59:02;;;;;;;18.13;16.17;;;9.50;99.90;;;;;;4922200;29;20036;-91
